createdAt,value
2017-11-20T00:02:18.003Z,6.10
2017-11-20T00:04:46.615Z,6.10
2017-11-20T00:07:15.988Z,6.00
2017-11-20T00:09:44.243Z,6.00
2017-11-20T00:12:12.527Z,6.10
2017-11-20T00:14:40.784Z,6.00
2017-11-20T00:17:09.033Z,6.10
2017-11-20T00:19:37.312Z,6.10
2017-11-20T00:22:05.617Z,6.00
2017-11-20T00:24:34.700Z,6.00
2017-11-20T00:27:02.956Z,6.00
2017-11-20T00:29:31.254Z,6.00
2017-11-20T00:31:59.514Z,6.00
2017-11-20T00:34:27.763Z,5.90
2017-11-20T00:36:56.064Z,5.90
2017-11-20T00:39:24.321Z,5.90
2017-11-20T00:41:52.629Z,6.00
2017-11-20T00:44:20.888Z,5.90
2017-11-20T00:46:49.140Z,5.90
2017-11-20T00:49:17.419Z,5.80
2017-11-20T00:51:45.676Z,5.80
2017-11-20T00:54:14.842Z,5.80
2017-11-20T00:56:43.807Z,5.80
2017-11-20T00:59:12.100Z,5.80
2017-11-20T01:01:40.352Z,5.80
2017-11-20T01:04:08.604Z,5.80
2017-11-20T01:06:36.886Z,5.80
2017-11-20T01:09:06.215Z,5.80
2017-11-20T01:11:34.522Z,5.70
2017-11-20T01:14:02.783Z,5.80
2017-11-20T01:16:31.035Z,5.80
2017-11-20T01:18:59.327Z,5.80
2017-11-20T01:21:27.585Z,5.80
2017-11-20T01:23:55.839Z,5.80
2017-11-20T01:26:24.143Z,5.80
2017-11-20T01:28:52.400Z,5.80
2017-11-20T01:31:20.657Z,5.80
2017-11-20T01:33:49.023Z,5.80
2017-11-20T01:36:17.320Z,5.80
2017-11-20T01:38:45.596Z,5.70
2017-11-20T01:41:15.167Z,5.80
2017-11-20T01:43:44.503Z,5.70
2017-11-20T01:46:12.792Z,5.70
2017-11-20T01:48:41.044Z,5.70
2017-11-20T01:51:09.301Z,5.70
2017-11-20T01:53:37.588Z,5.70
2017-11-20T01:56:05.866Z,5.60
2017-11-20T01:58:35.064Z,5.70
2017-11-20T02:01:04.410Z,5.60
2017-11-20T02:03:32.795Z,5.70
2017-11-20T02:06:01.057Z,5.70
2017-11-20T02:08:29.352Z,5.70
2017-11-20T02:10:57.612Z,5.80
2017-11-20T02:13:25.122Z,5.70
2017-11-20T02:15:53.403Z,5.70
2017-11-20T02:18:21.665Z,5.70
2017-11-20T02:20:49.950Z,5.70
2017-11-20T02:23:18.244Z,5.80
2017-11-20T02:25:46.504Z,5.70
2017-11-20T02:28:15.236Z,5.70
2017-11-20T02:30:44.252Z,5.70
2017-11-20T02:33:12.520Z,5.70
2017-11-20T02:35:40.776Z,5.70
2017-11-20T02:38:09.064Z,5.80
2017-11-20T02:40:37.320Z,5.70
2017-11-20T02:43:06.076Z,5.70
2017-11-20T02:45:35.043Z,5.60
2017-11-20T02:48:04.072Z,5.60
2017-11-20T02:50:32.374Z,5.60
2017-11-20T02:53:00.641Z,5.60
2017-11-20T02:55:28.891Z,5.60
2017-11-20T02:57:56.438Z,5.60
2017-11-20T03:00:24.963Z,5.60
2017-11-20T03:02:53.208Z,5.60
2017-11-20T03:05:21.492Z,5.70
2017-11-20T03:07:49.751Z,5.60
2017-11-20T03:10:18.040Z,5.60
2017-11-20T03:12:46.320Z,5.50
2017-11-20T03:15:15.384Z,5.50
2017-11-20T03:17:44.139Z,5.50
2017-11-20T03:20:12.387Z,5.50
2017-11-20T03:22:40.672Z,5.40
2017-11-20T03:25:08.932Z,5.40
2017-11-20T03:27:37.181Z,5.40
2017-11-20T03:30:06.199Z,5.40
2017-11-20T03:32:34.865Z,5.30
2017-11-20T03:35:03.140Z,5.40
2017-11-20T03:37:31.428Z,5.30
2017-11-20T03:39:59.688Z,5.30
2017-11-20T03:42:27.962Z,5.30
2017-11-20T03:44:56.221Z,5.30
2017-11-20T03:47:27.281Z,5.30
2017-11-20T03:49:55.536Z,5.30
2017-11-20T03:52:23.799Z,5.30
2017-11-20T03:54:52.100Z,5.20
2017-11-20T03:57:20.351Z,5.20
2017-11-20T03:59:48.617Z,5.20
2017-11-20T04:02:16.908Z,5.30
2017-11-20T04:04:45.715Z,5.30
2017-11-20T04:07:14.554Z,5.30
2017-11-20T04:09:42.861Z,5.30
2017-11-20T04:12:11.111Z,5.30
2017-11-20T04:14:39.363Z,5.30
2017-11-20T04:17:07.660Z,5.40
2017-11-20T04:19:35.925Z,5.30
2017-11-20T04:22:05.413Z,5.20
2017-11-20T04:24:34.385Z,5.20
2017-11-20T04:27:02.680Z,5.20
2017-11-20T04:29:30.936Z,5.20
2017-11-20T04:31:59.207Z,5.20
2017-11-20T04:34:27.465Z,5.20
2017-11-20T04:36:55.753Z,5.20
2017-11-20T04:39:24.052Z,5.20
2017-11-20T04:41:52.306Z,5.20
2017-11-20T04:44:20.564Z,5.20
2017-11-20T04:46:48.851Z,5.20
2017-11-20T04:49:17.136Z,5.20
2017-11-20T04:51:45.384Z,5.20
2017-11-20T04:54:13.720Z,5.20
2017-11-20T04:56:41.977Z,5.20
2017-11-20T04:59:10.227Z,5.20
2017-11-20T05:01:38.529Z,5.20
2017-11-20T05:04:06.788Z,5.20
2017-11-20T05:06:36.263Z,5.20
2017-11-20T05:09:04.547Z,5.20
2017-11-20T05:11:32.806Z,5.20
2017-11-20T05:14:01.097Z,5.20
2017-11-20T05:16:29.356Z,5.20
2017-11-20T05:18:56.859Z,5.20
2017-11-20T05:21:25.108Z,5.20
2017-11-20T05:23:52.644Z,5.20
2017-11-20T05:26:20.928Z,5.10
2017-11-20T05:28:49.192Z,5.10
2017-11-20T05:31:17.477Z,5.10
2017-11-20T05:33:45.772Z,5.10
2017-11-20T05:36:14.884Z,5.20
2017-11-20T05:38:43.900Z,5.10
2017-11-20T05:41:12.179Z,5.20
2017-11-20T05:43:40.474Z,5.20
2017-11-20T05:46:08.749Z,5.20
2017-11-20T05:48:37.000Z,5.20
2017-11-20T05:51:06.531Z,5.20
2017-11-20T05:53:35.362Z,5.20
2017-11-20T05:56:03.649Z,5.20
2017-11-20T05:58:31.896Z,5.20
2017-11-20T06:01:00.144Z,5.30
2017-11-20T06:03:28.449Z,5.20
2017-11-20T06:05:56.707Z,5.20
2017-11-20T06:08:24.960Z,5.20
2017-11-20T06:10:53.244Z,5.30
2017-11-20T06:13:21.494Z,5.20
2017-11-20T06:15:49.780Z,5.20
2017-11-20T06:18:18.028Z,5.20
2017-11-20T06:20:46.332Z,5.20
2017-11-20T06:23:15.832Z,5.30
2017-11-20T06:25:44.656Z,5.30
2017-11-20T06:28:12.932Z,5.30
2017-11-20T06:30:41.195Z,5.30
2017-11-20T06:33:09.482Z,5.40
2017-11-20T06:35:37.792Z,5.40
2017-11-20T06:38:06.048Z,5.40
2017-11-20T06:40:35.055Z,5.40
2017-11-20T06:43:03.972Z,5.30
2017-11-20T06:45:32.223Z,5.30
2017-11-20T06:48:00.515Z,5.20
2017-11-20T06:50:28.768Z,5.20
2017-11-20T06:52:57.014Z,5.20
2017-11-20T06:55:25.300Z,5.20
2017-11-20T06:57:53.551Z,5.20
2017-11-20T07:00:21.829Z,5.20
2017-11-20T07:02:50.131Z,5.20
2017-11-20T07:05:18.392Z,5.20
2017-11-20T07:07:45.904Z,5.20
2017-11-20T07:10:14.195Z,5.20
2017-11-20T07:12:42.450Z,5.20
2017-11-20T07:15:10.747Z,5.20
2017-11-20T07:17:38.995Z,5.20
2017-11-20T07:20:07.261Z,5.20
2017-11-20T07:22:35.959Z,5.20
2017-11-20T07:25:16.027Z,5.20
2017-11-20T07:28:00.961Z,5.10
2017-11-20T07:30:41.674Z,5.10
2017-11-20T07:33:10.056Z,5.10
2017-11-20T07:35:57.963Z,5.10
2017-11-20T07:38:38.078Z,5.10
2017-11-20T07:41:06.349Z,5.10
2017-11-20T07:43:34.893Z,5.10
2017-11-20T07:46:03.160Z,5.10
2017-11-20T07:48:31.411Z,5.00
2017-11-20T07:50:59.713Z,5.00
2017-11-20T07:53:27.958Z,5.00
2017-11-20T07:55:56.215Z,5.00
2017-11-20T07:58:24.499Z,5.00
2017-11-20T08:00:58.285Z,5.00
2017-11-20T08:03:41.344Z,5.10
2017-11-20T08:06:10.218Z,5.00
2017-11-20T08:08:38.467Z,5.10
2017-11-20T08:11:06.716Z,5.00
2017-11-20T08:13:35.675Z,5.00
2017-11-20T08:16:04.609Z,5.10
2017-11-20T08:18:32.883Z,5.10
2017-11-20T08:21:01.132Z,5.10
2017-11-20T08:23:29.415Z,5.10
2017-11-20T08:25:57.666Z,5.10
2017-11-20T08:28:25.944Z,5.10
2017-11-20T08:30:54.227Z,5.10
2017-11-20T08:33:22.473Z,5.10
2017-11-20T08:35:50.752Z,5.00
2017-11-20T08:38:19.003Z,5.00
2017-11-20T08:40:47.281Z,5.10
2017-11-20T08:43:15.577Z,5.10
2017-11-20T08:45:44.563Z,5.10
2017-11-20T08:48:12.816Z,5.10
2017-11-20T08:50:41.108Z,5.10
2017-11-20T08:53:09.364Z,5.10
2017-11-20T08:55:37.625Z,5.00
2017-11-20T08:58:06.200Z,5.00
2017-11-20T09:00:34.795Z,5.00
2017-11-20T09:03:03.043Z,5.00
2017-11-20T09:05:31.324Z,5.00
2017-11-20T09:07:59.576Z,5.10
2017-11-20T09:10:27.870Z,5.10
2017-11-20T09:12:56.130Z,5.10
2017-11-20T09:15:24.407Z,5.10
2017-11-20T09:17:52.695Z,5.10
2017-11-20T09:20:20.974Z,5.20
2017-11-20T09:22:49.253Z,5.20
2017-11-20T09:25:17.499Z,5.10
2017-11-20T09:27:45.778Z,5.10
2017-11-20T09:30:14.956Z,5.20
2017-11-20T09:32:43.961Z,5.20
2017-11-20T09:35:12.232Z,5.20
2017-11-20T09:37:40.479Z,5.30
2017-11-20T09:40:08.768Z,5.30
2017-11-20T09:42:37.029Z,5.30
2017-11-20T09:45:06.160Z,5.30
2017-11-20T09:47:34.960Z,5.30
2017-11-20T09:50:03.212Z,5.40
2017-11-20T09:52:31.494Z,5.30
2017-11-20T09:54:59.750Z,5.40
2017-11-20T09:57:28.043Z,5.40
2017-11-20T09:59:56.284Z,5.30
2017-11-20T10:02:24.533Z,5.40
2017-11-20T10:04:52.816Z,5.40
2017-11-20T10:07:21.069Z,5.30
2017-11-20T10:09:49.352Z,5.30
2017-11-20T10:12:17.603Z,5.30
2017-11-20T10:14:45.855Z,5.30
2017-11-20T10:17:15.024Z,5.30
2017-11-20T10:19:43.362Z,5.30
2017-11-20T10:22:11.636Z,5.40
2017-11-20T10:24:39.892Z,5.40
2017-11-20T10:27:08.167Z,5.40
2017-11-20T10:29:35.943Z,5.40
2017-11-20T10:32:05.099Z,5.60
2017-11-20T10:34:34.005Z,5.50
2017-11-20T10:37:02.281Z,5.50
2017-11-20T10:39:30.580Z,5.50
2017-11-20T10:41:58.824Z,5.60
2017-11-20T10:44:27.126Z,5.60
2017-11-20T10:46:55.407Z,5.60
2017-11-20T10:49:23.692Z,5.60
2017-11-20T10:51:51.945Z,5.70
2017-11-20T10:54:20.212Z,5.70
2017-11-20T10:56:48.496Z,5.80
2017-11-20T10:59:16.793Z,5.80
2017-11-20T11:01:45.774Z,5.70
2017-11-20T11:04:15.051Z,5.60
2017-11-20T11:06:43.865Z,5.70
2017-11-20T11:09:12.115Z,5.70
2017-11-20T11:11:40.413Z,5.70
2017-11-20T11:14:08.668Z,5.70
2017-11-20T11:16:36.155Z,5.70
2017-11-20T11:19:04.876Z,5.70
2017-11-20T11:21:33.128Z,5.70
2017-11-20T11:24:01.400Z,5.70
2017-11-20T11:26:29.663Z,5.60
2017-11-20T11:28:57.951Z,5.60
2017-11-20T11:31:26.248Z,5.60
2017-11-20T11:33:54.517Z,5.70
2017-11-20T11:36:22.784Z,5.70
2017-11-20T11:38:51.084Z,5.80
2017-11-20T11:41:19.366Z,5.70
2017-11-20T11:43:47.620Z,5.70
2017-11-20T11:46:16.001Z,5.70
2017-11-20T11:48:44.727Z,5.60
2017-11-20T11:51:12.983Z,5.60
2017-11-20T11:53:40.494Z,5.60
2017-11-20T11:56:08.779Z,5.70
2017-11-20T11:58:37.083Z,5.80
2017-11-20T12:01:05.947Z,5.80
2017-11-20T12:03:35.373Z,5.80
2017-11-20T12:06:03.961Z,5.70
2017-11-20T12:08:32.242Z,5.80
2017-11-20T12:11:00.540Z,5.80
2017-11-20T12:13:28.788Z,5.80
2017-11-20T12:15:57.043Z,5.70
2017-11-20T12:18:25.323Z,5.80
2017-11-20T12:20:53.611Z,5.80
2017-11-20T12:23:21.868Z,5.90
2017-11-20T12:25:50.156Z,5.80
2017-11-20T12:28:18.408Z,5.80
2017-11-20T12:30:46.684Z,5.90
2017-11-20T12:33:15.523Z,5.80
2017-11-20T12:35:44.379Z,5.90
2017-11-20T12:38:12.656Z,5.90
2017-11-20T12:40:40.902Z,6.00
2017-11-20T12:43:09.200Z,6.00
2017-11-20T12:45:37.460Z,6.00
2017-11-20T12:48:06.103Z,6.10
2017-11-20T12:50:35.120Z,6.10
2017-11-20T12:53:02.618Z,6.10
2017-11-20T12:55:30.915Z,6.10
2017-11-20T12:57:59.171Z,6.20
2017-11-20T13:00:27.433Z,6.20
2017-11-20T13:02:55.716Z,6.20
2017-11-20T13:05:24.009Z,6.10
2017-11-20T13:07:52.263Z,6.10
2017-11-20T13:10:20.543Z,6.10
2017-11-20T13:12:48.798Z,6.10
2017-11-20T13:15:17.113Z,6.10
2017-11-20T13:17:46.305Z,6.10
2017-11-20T13:20:14.950Z,6.10
2017-11-20T13:22:43.896Z,6.10
2017-11-20T13:25:12.147Z,6.10
2017-11-20T13:27:40.407Z,6.10
2017-11-20T13:30:08.704Z,6.10
2017-11-20T13:32:36.993Z,6.10
2017-11-20T13:35:06.108Z,6.10
2017-11-20T13:37:34.924Z,6.10
2017-11-20T13:40:03.223Z,6.20
2017-11-20T13:42:31.488Z,6.20
2017-11-20T13:44:59.738Z,6.10
2017-11-20T13:47:28.036Z,6.20
2017-11-20T13:49:56.305Z,6.20
2017-11-20T13:52:24.557Z,6.20
2017-11-20T13:54:52.851Z,6.10
2017-11-20T13:57:21.147Z,6.20
2017-11-20T13:59:49.401Z,6.10
2017-11-20T14:02:17.652Z,6.10
2017-11-20T14:04:46.156Z,6.20
2017-11-20T14:07:14.037Z,6.20
2017-11-20T14:09:42.297Z,6.20
2017-11-20T14:12:10.576Z,6.20
2017-11-20T14:14:38.828Z,6.30
2017-11-20T14:17:07.116Z,6.30
2017-11-20T14:19:36.087Z,6.20
2017-11-20T14:22:04.931Z,6.30
2017-11-20T14:24:33.193Z,6.40
2017-11-20T14:27:01.567Z,6.30
2017-11-20T14:29:29.868Z,6.30
2017-11-20T14:31:58.123Z,6.40
2017-11-20T14:34:26.384Z,6.40
2017-11-20T14:36:54.680Z,6.40
2017-11-20T14:39:22.939Z,6.50
2017-11-20T14:41:51.191Z,6.50
2017-11-20T14:44:19.480Z,6.50
2017-11-20T14:46:49.174Z,6.60
2017-11-20T14:49:17.428Z,6.50
2017-11-20T14:51:47.907Z,6.50
2017-11-20T14:54:19.971Z,6.60
2017-11-20T14:56:48.266Z,6.60
2017-11-20T14:59:16.528Z,6.60
2017-11-20T15:01:50.206Z,6.60
2017-11-20T15:04:18.468Z,6.50
2017-11-20T15:06:46.724Z,6.60
2017-11-20T15:09:16.924Z,6.60
2017-11-20T15:11:46.149Z,6.60
2017-11-20T15:14:15.220Z,6.70
2017-11-20T15:16:44.026Z,6.70
2017-11-20T15:19:12.309Z,6.70
2017-11-20T15:21:40.587Z,6.70
2017-11-20T15:24:08.851Z,6.70
2017-11-20T15:26:37.155Z,6.70
2017-11-20T15:29:06.028Z,6.70
2017-11-20T15:31:34.855Z,6.70
2017-11-20T15:34:03.139Z,6.70
2017-11-20T15:36:31.399Z,6.70
2017-11-20T15:38:59.663Z,6.70
2017-11-20T15:41:27.945Z,6.80
2017-11-20T15:43:56.227Z,6.80
2017-11-20T15:46:24.481Z,6.80
2017-11-20T15:48:52.767Z,6.80
2017-11-20T15:51:21.046Z,6.80
2017-11-20T15:53:49.295Z,6.80
2017-11-20T15:56:17.586Z,6.80
2017-11-20T15:58:46.195Z,6.80
2017-11-20T16:01:15.041Z,6.80
2017-11-20T16:03:43.301Z,6.90
2017-11-20T16:06:11.552Z,6.90
2017-11-20T16:08:39.829Z,6.90
2017-11-20T16:11:08.079Z,6.90
2017-11-20T16:13:36.370Z,6.90
2017-11-20T16:16:05.035Z,6.90
2017-11-20T16:18:34.129Z,6.90
2017-11-20T16:21:02.431Z,7.00
2017-11-20T16:23:30.693Z,6.90
2017-11-20T16:25:58.952Z,7.00
2017-11-20T16:28:27.231Z,7.00
2017-11-20T16:30:55.483Z,7.00
2017-11-20T16:33:22.999Z,7.00
2017-11-20T16:35:51.253Z,7.10
2017-11-20T16:38:19.504Z,7.20
2017-11-20T16:40:47.790Z,7.20
2017-11-20T16:43:16.160Z,7.20
2017-11-20T16:45:45.014Z,7.20
2017-11-20T16:48:12.504Z,7.10
2017-11-20T16:50:40.856Z,7.20
2017-11-20T16:53:09.165Z,7.10
2017-11-20T16:55:37.424Z,7.20
2017-11-20T16:58:18.086Z,7.20
2017-11-20T17:00:48.139Z,7.30
2017-11-20T17:03:35.151Z,7.30
2017-11-20T17:06:04.141Z,7.30
2017-11-20T17:08:32.433Z,7.40
2017-11-20T17:11:00.856Z,7.40
2017-11-20T17:13:29.107Z,7.40
2017-11-20T17:16:00.635Z,7.40
2017-11-20T17:18:28.883Z,7.50
2017-11-20T17:20:57.180Z,7.50
2017-11-20T17:23:25.432Z,7.50
2017-11-20T17:25:54.832Z,7.50
2017-11-20T17:28:23.116Z,7.50
2017-11-20T17:30:51.402Z,7.50
2017-11-20T17:33:19.686Z,7.60
2017-11-20T17:35:47.935Z,7.60
2017-11-20T17:38:17.179Z,7.70
2017-11-20T17:40:45.907Z,7.70
2017-11-20T17:43:14.848Z,7.70
2017-11-20T17:45:43.132Z,7.70
2017-11-20T17:48:11.406Z,7.80
2017-11-20T17:50:39.722Z,7.90
2017-11-20T17:53:08.000Z,7.90
2017-11-20T17:55:36.325Z,8.00
2017-11-20T17:58:04.971Z,8.00
2017-11-20T18:00:33.296Z,8.00
2017-11-20T18:03:01.585Z,8.10
2017-11-20T18:05:29.834Z,8.10
2017-11-20T18:07:58.122Z,8.20
2017-11-20T18:10:26.937Z,8.10
2017-11-20T18:12:55.220Z,8.20
2017-11-20T18:15:23.464Z,8.20
2017-11-20T18:17:51.746Z,8.20
2017-11-20T18:20:20.001Z,8.30
2017-11-20T18:22:48.251Z,8.30
2017-11-20T18:25:16.171Z,8.30
2017-11-20T18:27:45.013Z,8.40
2017-11-20T18:30:13.266Z,8.40
2017-11-20T18:32:41.550Z,8.50
2017-11-20T18:35:09.793Z,8.50
2017-11-20T18:37:38.072Z,8.50
2017-11-20T18:40:06.323Z,8.60
2017-11-20T18:42:34.992Z,8.70
2017-11-20T18:45:04.073Z,8.60
2017-11-20T18:47:32.356Z,8.50
2017-11-20T18:50:04.540Z,8.60
2017-11-20T18:52:32.829Z,8.60
2017-11-20T18:55:01.082Z,8.60
2017-11-20T18:57:31.380Z,8.60
2017-11-20T19:00:16.631Z,8.60
2017-11-20T19:02:49.555Z,8.70
2017-11-20T19:05:34.000Z,8.60
2017-11-20T19:08:14.625Z,8.60
2017-11-20T19:10:42.899Z,8.70
2017-11-20T19:13:11.147Z,8.60
2017-11-20T19:15:39.423Z,8.80
2017-11-20T19:18:07.680Z,8.80
2017-11-20T19:20:36.139Z,8.80
2017-11-20T19:23:04.883Z,8.80
2017-11-20T19:25:47.007Z,8.70
2017-11-20T19:28:15.800Z,8.80
2017-11-20T19:30:44.695Z,8.80
2017-11-20T19:33:18.103Z,8.90
2017-11-20T19:35:46.404Z,8.90
2017-11-20T19:38:14.994Z,8.90
2017-11-20T19:40:53.667Z,8.90
2017-11-20T19:43:21.919Z,8.90
2017-11-20T19:45:52.244Z,9.00
2017-11-20T19:48:20.491Z,9.00
2017-11-20T19:50:48.751Z,8.90
2017-11-20T19:53:17.027Z,9.00
2017-11-20T19:55:46.195Z,9.00
2017-11-20T19:58:15.035Z,9.00
2017-11-20T20:00:43.317Z,9.10
2017-11-20T20:03:11.616Z,9.00
2017-11-20T20:05:39.875Z,9.00
2017-11-20T20:08:08.193Z,9.00
2017-11-20T20:10:36.444Z,9.00
2017-11-20T20:13:05.281Z,9.10
2017-11-20T20:15:45.675Z,9.10
2017-11-20T20:18:14.636Z,9.10
2017-11-20T20:20:42.891Z,9.00
2017-11-20T20:23:11.216Z,9.00
2017-11-20T20:25:39.464Z,8.90
2017-11-20T20:28:07.951Z,9.00
2017-11-20T20:30:36.468Z,9.00
2017-11-20T20:33:05.430Z,9.00
2017-11-20T20:35:34.077Z,9.10
2017-11-20T20:38:02.372Z,9.10
2017-11-20T20:40:30.654Z,9.30
2017-11-20T20:42:58.898Z,9.30
2017-11-20T20:45:27.163Z,9.20
2017-11-20T20:47:55.439Z,9.20
2017-11-20T20:50:23.694Z,9.20
2017-11-20T20:52:51.971Z,9.20
2017-11-20T20:55:20.257Z,9.20
2017-11-20T20:57:48.545Z,9.20
2017-11-20T21:00:16.873Z,9.40
2017-11-20T21:02:45.968Z,9.30
2017-11-20T21:05:15.053Z,9.40
2017-11-20T21:07:43.315Z,9.30
2017-11-20T21:10:16.624Z,9.30
2017-11-20T21:12:45.125Z,9.30
2017-11-20T21:15:13.374Z,9.40
2017-11-20T21:17:41.654Z,9.40
2017-11-20T21:20:09.940Z,9.40
2017-11-20T21:22:38.191Z,9.40
2017-11-20T21:25:06.448Z,9.40
2017-11-20T21:27:35.775Z,9.40
2017-11-20T21:30:04.600Z,9.50
2017-11-20T21:32:32.852Z,9.50
2017-11-20T21:35:01.132Z,9.60
2017-11-20T21:37:29.392Z,9.50
2017-11-20T21:39:57.680Z,9.50
2017-11-20T21:42:25.967Z,9.60
2017-11-20T21:44:54.211Z,9.60
2017-11-20T21:47:22.471Z,9.60
2017-11-20T21:49:50.755Z,9.60
2017-11-20T21:52:19.019Z,9.60
2017-11-20T21:54:47.304Z,9.70
2017-11-20T21:57:16.395Z,9.70
2017-11-20T21:59:44.284Z,9.60
2017-11-20T22:02:12.535Z,9.80
2017-11-20T22:04:40.795Z,9.70
2017-11-20T22:07:09.083Z,9.80
2017-11-20T22:09:37.340Z,9.70
2017-11-20T22:12:06.213Z,9.70
2017-11-20T22:14:35.112Z,9.70
2017-11-20T22:17:04.494Z,9.70
2017-11-20T22:19:32.748Z,9.70
2017-11-20T22:22:01.016Z,10.00
2017-11-20T22:24:29.267Z,10.10
2017-11-20T22:26:57.558Z,10.10
2017-11-20T22:29:25.811Z,10.10
2017-11-20T22:31:54.091Z,10.00
2017-11-20T22:34:21.579Z,10.00
2017-11-20T22:36:49.867Z,10.00
2017-11-20T22:39:18.120Z,10.10
2017-11-20T22:41:46.377Z,10.10
2017-11-20T22:44:15.148Z,10.20
2017-11-20T22:46:43.431Z,10.20
2017-11-20T22:49:11.730Z,10.10
2017-11-20T22:51:39.984Z,10.00
2017-11-20T22:54:08.293Z,9.90
2017-11-20T22:56:36.131Z,9.90
2017-11-20T22:59:04.939Z,10.10
2017-11-20T23:01:33.221Z,10.10
2017-11-20T23:04:01.583Z,10.00
2017-11-20T23:06:29.839Z,10.00
2017-11-20T23:08:58.099Z,10.00
2017-11-20T23:11:26.399Z,10.10
2017-11-20T23:13:54.650Z,10.00
2017-11-20T23:16:22.903Z,10.10
2017-11-20T23:18:51.183Z,10.10
2017-11-20T23:21:19.435Z,10.20
2017-11-20T23:23:47.720Z,10.20
2017-11-20T23:26:16.312Z,10.10
2017-11-20T23:28:45.144Z,10.10
2017-11-20T23:31:13.440Z,10.00
2017-11-20T23:33:41.697Z,10.10
2017-11-20T23:36:09.951Z,10.20
2017-11-20T23:38:38.236Z,10.20
2017-11-20T23:41:06.492Z,10.20
2017-11-20T23:43:35.592Z,10.20
2017-11-20T23:46:04.524Z,10.30
2017-11-20T23:48:32.808Z,10.20
2017-11-20T23:51:01.059Z,10.20
2017-11-20T23:53:35.207Z,10.20
2017-11-20T23:56:04.068Z,10.30
2017-11-20T23:58:32.355Z,10.30
